Time;durP1;ratioP1;P1;durP2;ratioP2;P2;SDS_P1;SDS_P2;PMS_P1;PMS_P2;Temp;Humidity;BMP_temperature;BMP_pressure;BME280_temperature;BME280_humidity;BME280_pressure;Samples;Min_cycle;Max_cycle;Signal;HPM_P1;HPM_P2
2021/03/21 00:02:05;;;;;;;10.80;8.67;;;;;;;5.52;85.73;102560.13;5095622;28;20071;-40
2021/03/21 00:04:31;;;;;;;15.23;9.50;;;;;;;5.53;85.93;102572.53;5095433;28;20020;-40
2021/03/21 00:06:56;;;;;;;11.50;8.60;;;;;;;5.53;85.72;102573.38;5095609;28;20028;-40
2021/03/21 00:09:22;;;;;;;11.70;8.30;;;;;;;5.51;85.99;102569.16;5095901;28;20495;-41
2021/03/21 00:11:47;;;;;;;11.17;8.70;;;;;;;5.52;85.76;102579.75;5095712;28;20028;-40
2021/03/21 00:14:12;;;;;;;10.97;9.60;;;;;;;5.54;86.09;102582.28;5095527;28;20024;-40
2021/03/21 00:16:37;;;;;;;11.07;9.33;;;;;;;5.54;85.93;102579.59;5095098;28;20497;-40
2021/03/21 00:19:06;;;;;;;12.40;9.37;;;;;;;5.54;85.73;102584.97;5095352;28;20020;-41
2021/03/21 00:21:32;;;;;;;11.07;8.52;;;;;;;5.52;85.43;102578.91;5095459;28;20111;-41
2021/03/21 00:23:58;;;;;;;9.95;7.82;;;;;;;5.52;85.80;102581.59;5095298;28;20450;-40
2021/03/21 00:26:23;;;;;;;9.57;7.40;;;;;;;5.52;86.16;102576.25;5095476;28;20028;-40
2021/03/21 00:28:49;;;;;;;8.77;7.53;;;;;;;5.51;86.11;102571.84;5095129;28;20056;-40
2021/03/21 00:31:14;;;;;;;9.52;6.57;;;;;;;5.53;86.12;102575.22;5094796;28;20109;-40
2021/03/21 00:33:42;;;;;;;7.45;5.85;;;;;;;5.54;85.59;102574.22;5094756;28;20028;-40
2021/03/21 00:36:10;;;;;;;6.75;5.38;;;;;;;5.50;85.38;102562.13;5095064;28;20028;-40
2021/03/21 00:38:39;;;;;;;6.47;5.30;;;;;;;5.51;85.45;102574.53;5095684;28;20410;-40
2021/03/21 00:41:07;;;;;;;5.32;4.60;;;;;;;5.48;85.81;102564.13;5095201;28;20035;-40
2021/03/21 00:43:32;;;;;;;5.70;4.50;;;;;;;5.47;86.06;102565.97;5095113;28;20036;-41
2021/03/21 00:45:58;;;;;;;5.38;4.22;;;;;;;5.49;85.56;102565.81;5095080;28;20077;-40
2021/03/21 00:48:34;;;;;;;5.67;4.17;;;;;;;5.49;85.50;102561.28;5094393;28;20097;-40
2021/03/21 00:51:00;;;;;;;5.43;4.40;;;;;;;5.45;85.79;102554.53;5094481;28;20734;-40
2021/03/21 00:53:26;;;;;;;;;;;;;;;5.52;84.85;102550.25;5095109;28;20380;-40
2021/03/21 00:55:51;;;;;;;4.90;3.55;;;;;;;5.45;85.34;102545.63;5094625;28;19908;-40
2021/03/21 00:58:18;;;;;;;4.63;3.58;;;;;;;5.46;85.38;102550.00;5094270;28;20431;-40
2021/03/21 01:00:47;;;;;;;5.82;3.38;;;;;;;5.44;85.68;102542.13;5095307;28;20399;-40
2021/03/21 01:03:13;;;;;;;3.70;3.20;;;;;;;5.46;85.42;102537.44;5094508;28;20036;-40
2021/03/21 01:05:48;;;;;;;4.80;3.55;;;;;;;5.47;85.03;102535.63;5094474;28;20024;-40
2021/03/21 01:08:22;;;;;;;4.25;3.47;;;;;;;5.43;85.81;102527.88;5094621;28;20077;-40
2021/03/21 01:10:49;;;;;;;4.57;3.17;;;;;;;5.40;85.85;102524.63;5094356;28;20024;-40
2021/03/21 01:13:16;;;;;;;5.15;3.55;;;;;;;5.41;85.91;102519.09;5094261;28;20055;-40
2021/03/21 01:15:41;;;;;;;;;;;;;;;5.49;84.79;102520.19;5094203;28;20461;-40
2021/03/21 01:18:07;;;;;;;6.93;4.37;;;;;;;5.41;85.82;102518.28;5094200;28;19907;-40
2021/03/21 01:20:33;;;;;;;6.53;5.25;;;;;;;5.41;85.67;102520.94;5094948;28;20353;-40
2021/03/21 01:22:58;;;;;;;8.90;5.00;;;;;;;5.40;85.85;102517.44;5093966;28;20058;-40
2021/03/21 01:25:26;;;;;;;6.80;5.10;;;;;;;5.43;86.20;102513.63;5093739;28;20428;-40
2021/03/21 01:27:53;;;;;;;7.35;5.18;;;;;;;5.41;86.33;102511.06;5093651;28;20035;-40
2021/03/21 01:30:20;;;;;;;8.18;6.15;;;;;;;5.39;86.22;102510.38;5094279;28;20024;-40
2021/03/21 01:32:45;;;;;;;9.75;6.93;;;;;;;5.41;86.51;102519.09;5093811;28;20062;-40
2021/03/21 01:35:12;;;;;;;9.53;8.00;;;;;;;5.38;86.46;102511.41;5093973;28;20082;-40
2021/03/21 01:37:38;;;;;;;9.13;7.80;;;;;;;5.39;86.97;102504.19;5093829;28;20024;-40
2021/03/21 01:40:06;;;;;;;11.98;9.35;;;;;;;5.42;86.94;102504.72;5094185;28;20492;-40
2021/03/21 01:42:41;;;;;;;13.23;9.82;;;;;;;5.41;87.33;102494.97;5092793;28;20417;-40
2021/03/21 01:45:28;;;;;;;13.63;10.82;;;;;;;5.41;86.35;102488.75;5094320;28;20069;-40
2021/03/21 01:47:55;;;;;;;14.68;11.27;;;;;;;5.39;87.21;102486.25;5093721;28;20517;-40
2021/03/21 01:50:34;;;;;;;13.68;10.90;;;;;;;5.37;87.42;102482.06;5093969;28;20429;-40
2021/03/21 01:53:01;;;;;;;16.25;11.88;;;;;;;5.36;87.34;102480.34;5093941;28;20024;-40
2021/03/21 01:55:27;;;;;;;16.67;11.95;;;;;;;5.36;87.61;102480.34;5094482;28;20376;-40
2021/03/21 01:57:52;;;;;;;15.10;11.90;;;;;;;5.37;87.95;102461.44;5094161;28;20034;-40
2021/03/21 02:00:20;;;;;;;15.13;11.30;;;;;;;5.33;87.77;102468.09;5093540;28;20035;-40
2021/03/21 02:02:47;;;;;;;15.77;12.60;;;;;;;5.34;88.02;102459.03;5093171;28;20042;-40
2021/03/21 02:05:13;;;;;;;16.00;12.63;;;;;;;5.33;88.29;102465.41;5093908;28;20100;-41
2021/03/21 02:07:44;;;;;;;16.40;12.60;;;;;;;5.37;87.94;102471.31;5093189;28;20491;-40
2021/03/21 02:10:33;;;;;;;19.00;13.90;;;;;;;5.37;88.32;102437.28;5093826;28;20456;-40
2021/03/21 02:13:08;;;;;;;17.38;13.88;;;;;;;5.34;88.41;102442.94;5093767;28;20031;-40
2021/03/21 02:15:37;;;;;;;17.80;13.82;;;;;;;5.34;88.34;102431.38;5093984;28;20413;-40
2021/03/21 02:18:26;;;;;;;17.48;14.27;;;;;;;5.35;88.27;102447.31;5093338;28;20036;-40
2021/03/21 02:21:21;;;;;;;18.33;13.93;;;;;;;5.38;88.28;102433.59;5094099;28;20192;-40
2021/03/21 02:24:16;;;;;;;18.20;14.23;;;;;;;5.35;88.39;102431.22;5093374;28;20020;-40
2021/03/21 02:27:00;;;;;;;19.40;15.48;;;;;;;5.37;88.29;102428.41;5093443;28;20454;-40
2021/03/21 02:29:42;;;;;;;18.88;14.82;;;;;;;5.37;88.32;102420.34;5093632;28;20102;-40
2021/03/21 02:32:16;;;;;;;18.70;15.25;;;;;;;5.34;88.28;102421.50;5093582;28;20055;-40
2021/03/21 02:34:59;;;;;;;17.65;14.93;;;;;;;5.35;88.83;102427.69;5093106;28;20028;-40
2021/03/21 02:37:47;;;;;;;18.40;14.88;;;;;;;5.34;88.76;102416.13;5093583;28;20081;-40
2021/03/21 02:40:35;;;;;;;19.52;15.43;;;;;;;5.37;88.36;102418.50;5093592;28;20024;-40
2021/03/21 02:43:16;;;;;;;18.08;14.90;;;;;;;5.37;88.60;102412.31;5093199;28;20495;-40
2021/03/21 02:45:45;;;;;;;19.67;15.13;;;;;;;5.34;88.84;102416.13;5093561;28;20032;-40
2021/03/21 02:48:21;;;;;;;17.83;14.95;;;;;;;5.34;89.02;102412.59;5093635;28;20028;-40
2021/03/21 02:50:56;;;;;;;19.42;15.55;;;;;;;5.32;89.11;102410.09;5093130;28;20023;-40
2021/03/21 02:53:28;;;;;;;18.60;14.35;;;;;;;5.36;89.13;102410.59;5094290;28;20142;-40
2021/03/21 02:55:56;;;;;;;18.08;14.70;;;;;;;5.34;89.07;102405.41;5097740;28;20023;-40
2021/03/21 02:58:27;;;;;;;17.38;14.48;;;;;;;5.35;89.07;102398.19;5096840;28;20024;-40
2021/03/21 03:01:01;;;;;;;18.58;14.48;;;;;;;5.32;89.25;102388.63;5097079;28;20031;-40
2021/03/21 03:03:29;;;;;;;17.20;14.52;;;;;;;5.31;89.50;102378.88;5097315;28;20024;-40
2021/03/21 03:06:00;;;;;;;15.60;12.68;;;;;;;5.31;88.91;102380.72;5096768;28;20135;-40
2021/03/21 03:08:49;;;;;;;17.45;13.00;;;;;;;5.34;89.43;102372.38;5096743;28;20077;-40
2021/03/21 03:11:18;;;;;;;15.80;12.77;;;;;;;5.32;89.08;102372.53;5096946;28;20028;-40
2021/03/21 03:13:48;;;;;;;17.27;13.07;;;;;;;5.32;89.28;102372.53;5096800;28;20036;-40
2021/03/21 03:16:25;;;;;;;16.02;13.00;;;;;;;5.32;89.22;102360.94;5096478;28;20024;-40
2021/03/21 03:19:37;;;;;;;15.15;12.75;;;;;;;5.35;88.96;102363.31;5096323;28;20476;-40
2021/03/21 03:22:23;;;;;;;16.10;12.07;;;;;;;5.32;89.11;102369.84;5053928;28;20048;-40
2021/03/21 03:25:25;;;;;;;15.68;12.20;;;;;;;5.37;88.71;102374.75;5053970;28;20048;-40
2021/03/21 03:28:29;;;;;;;16.77;12.70;;;;;;;5.35;89.13;102361.47;4974983;28;20193;-40
2021/03/21 03:31:08;;;;;;;15.73;12.73;;;;;;;5.35;89.56;102366.84;4974970;28;20488;-40
2021/03/21 03:33:36;;;;;;;17.10;13.18;;;;;;;5.34;89.23;102378.56;4975325;28;20528;-40
2021/03/21 03:36:06;;;;;;;17.20;13.77;;;;;;;5.35;89.08;102377.56;4974919;28;20118;-40
2021/03/21 03:38:31;;;;;;;17.67;13.40;;;;;;;5.36;88.80;102365.81;4974999;28;20069;-40
2021/03/21 03:41:02;;;;;;;22.80;15.00;;;;;;;5.31;89.58;102368.16;4974873;28;20511;-40
2021/03/21 03:43:59;;;;;;;18.77;13.30;;;;;;;5.38;89.11;102363.00;4974984;28;20042;-40
2021/03/21 03:46:39;;;;;;;17.53;14.10;;;;;;;5.39;89.31;102367.38;4974953;28;20471;-40
2021/03/21 03:49:40;;;;;;;19.30;14.48;;;;;;;5.39;88.97;102362.84;4974989;28;20077;-40
2021/03/21 03:52:32;;;;;;;18.35;13.88;;;;;;;5.43;89.01;102374.09;4974535;28;20038;-40
2021/03/21 03:55:28;;;;;;;18.90;13.75;;;;;;;5.41;88.94;102374.22;4982658;28;20513;-40
2021/03/21 03:58:01;;;;;;;20.15;14.35;;;;;;;5.39;89.06;102370.88;5034061;28;20034;-40
2021/03/21 04:00:40;;;;;;;18.60;14.40;;;;;;;5.47;88.90;102377.31;5033356;28;20029;-40
2021/03/21 04:03:19;;;;;;;21.77;15.07;;;;;;;5.43;88.71;102374.94;5058088;28;20039;-40
2021/03/21 04:05:58;;;;;;;20.77;14.23;;;;;;;5.45;88.84;102374.75;5094606;28;20031;-40
2021/03/21 04:08:26;;;;;;;20.63;14.90;;;;;;;5.46;88.68;102378.28;5096134;28;20028;-40
2021/03/21 04:11:01;;;;;;;19.90;14.35;;;;;;;5.47;89.11;102370.09;5095269;28;20028;-40
2021/03/21 04:13:47;;;;;;;23.60;15.85;;;;;;;5.48;88.85;102381.66;5095685;28;20028;-40
2021/03/21 04:16:24;;;;;;;22.75;15.75;;;;;;;5.48;88.96;102379.81;5095388;28;20028;-40
2021/03/21 04:19:05;;;;;;;24.38;16.38;;;;;;;5.48;88.53;102381.66;5096206;28;20028;-40
2021/03/21 04:21:47;;;;;;;25.50;16.35;;;;;;;5.47;88.81;102380.00;5095577;28;20075;-40
2021/03/21 04:24:22;;;;;;;22.02;15.52;;;;;;;5.50;89.12;102379.66;5094957;28;20032;-40
2021/03/21 04:27:01;;;;;;;21.77;15.57;;;;;;;5.49;89.47;102383.34;5095219;28;20028;-40
2021/03/21 04:29:39;;;;;;;27.45;17.42;;;;;;;5.49;89.94;102383.34;5095190;28;20024;-40
2021/03/21 04:32:17;;;;;;;26.20;17.10;;;;;;;5.47;89.39;102380.84;5094877;28;20119;-40
2021/03/21 04:34:47;;;;;;;24.90;17.02;;;;;;;5.45;89.88;102373.94;5095053;28;20099;-40
2021/03/21 04:37:14;;;;;;;27.88;18.02;;;;;;;5.50;89.95;102374.28;5095287;28;20020;-40
2021/03/21 04:39:42;;;;;;;29.77;17.77;;;;;;;5.51;89.61;102384.84;5095504;28;20024;-40
2021/03/21 04:42:15;;;;;;;27.35;18.60;;;;;;;5.49;90.27;102376.13;5094478;28;20020;-40
2021/03/21 04:44:51;;;;;;;27.65;17.90;;;;;;;5.50;90.25;102380.50;5094908;28;20035;-40
2021/03/21 04:47:33;;;;;;;27.37;18.00;;;;;;;5.52;90.40;102388.41;5094870;28;20158;-40
2021/03/21 04:49:59;;;;;;;24.63;16.48;;;;;;;5.54;89.84;102381.03;5095037;28;20341;-40
2021/03/21 04:52:38;;;;;;;27.30;17.95;;;;;;;5.55;90.27;102393.44;5094691;28;20032;-41
2021/03/21 04:55:09;;;;;;;30.88;19.67;;;;;;;5.56;90.13;102397.78;5094456;28;20496;-41
2021/03/21 04:57:46;;;;;;;32.22;20.98;;;;;;;5.58;90.30;102391.28;5094614;28;20054;-41
2021/03/21 05:00:20;;;;;;;29.52;20.58;;;;;;;5.60;89.99;102394.63;5094575;28;20028;-40
2021/03/21 05:02:49;;;;;;;32.92;20.88;;;;;;;5.62;90.43;102397.16;5094333;28;20020;-40
2021/03/21 05:05:24;;;;;;;33.55;22.25;;;;;;;5.64;90.30;102395.16;5094869;28;20036;-41
2021/03/21 05:07:56;;;;;;;33.83;20.58;;;;;;;5.64;90.08;102382.56;5093982;28;20481;-40
2021/03/21 05:10:22;;;;;;;30.33;20.15;;;;;;;5.63;89.61;102377.38;5094415;28;20431;-40
2021/03/21 05:13:08;;;;;;;29.70;19.97;;;;;;;5.64;89.72;102385.25;5094332;28;20028;-40
2021/03/21 05:15:54;;;;;;;31.60;21.02;;;;;;;5.66;89.61;102383.28;5094549;28;20028;-40
2021/03/21 05:18:38;;;;;;;25.67;18.70;;;;;;;5.66;89.84;102379.72;5093734;28;20062;-41
2021/03/21 05:21:29;;;;;;;31.02;20.02;;;;;;;5.65;89.10;102383.41;5094035;28;20387;-41
2021/03/21 05:24:11;;;;;;;30.75;20.38;;;;;;;5.59;89.63;102376.84;5094496;28;20024;-40
2021/03/21 05:26:44;;;;;;;25.55;17.30;;;;;;;5.57;88.95;102370.81;5094109;28;20035;-40
2021/03/21 05:29:37;;;;;;;23.08;17.13;;;;;;;5.56;88.95;102371.81;5094405;28;20072;-40
2021/03/21 05:32:04;;;;;;;25.67;18.05;;;;;;;5.53;89.23;102363.25;5094277;28;20449;-41
2021/03/21 05:34:30;;;;;;;23.98;16.58;;;;;;;5.51;89.12;102359.88;5093956;28;20063;-40
2021/03/21 05:37:20;;;;;;;21.40;15.68;;;;;;;5.47;89.03;102366.56;5094604;28;20066;-41
2021/03/21 05:40:11;;;;;;;24.30;16.42;;;;;;;5.46;88.45;102367.56;5094182;28;20028;-41
2021/03/21 05:42:39;;;;;;;20.85;15.68;;;;;;;5.43;88.99;102380.28;5094648;28;20444;-41
2021/03/21 05:45:23;;;;;;;19.80;15.10;;;;;;;5.47;88.53;102375.47;5094138;28;20109;-41
2021/03/21 05:48:00;;;;;;;20.08;14.68;;;;;;;5.46;88.47;102378.28;5093539;28;20032;-41
2021/03/21 05:50:38;;;;;;;17.98;13.75;;;;;;;5.47;88.26;102385.34;5093833;28;20078;-40
2021/03/21 05:53:25;;;;;;;19.92;14.05;;;;;;;5.50;88.34;102391.22;5094557;28;20028;-40
2021/03/21 05:55:57;;;;;;;18.13;13.40;;;;;;;5.52;87.71;102391.94;5093784;28;20024;-40
2021/03/21 05:59:00;;;;;;;15.15;12.57;;;;;;;5.56;88.12;102406.72;5094212;28;20369;-42
2021/03/21 06:01:41;;;;;;;17.73;13.07;;;;;;;5.56;87.76;102405.84;5093873;28;20032;-40
2021/03/21 06:04:27;;;;;;;17.20;12.32;;;;;;;5.59;87.86;102406.38;5093944;28;20031;-41
2021/03/21 06:07:26;;;;;;;16.00;12.05;;;;;;;5.60;87.68;102415.25;5094043;28;20043;-42
2021/03/21 06:10:29;;;;;;;18.23;11.52;;;;;;;5.65;88.00;102408.41;5094144;28;20051;-41
2021/03/21 06:13:25;;;;;;;17.52;11.95;;;;;;;5.63;87.52;102385.44;5094350;28;20482;-40
2021/03/21 06:16:29;;;;;;;14.85;10.57;;;;;;;5.67;87.50;102394.84;5093771;28;20028;-41
2021/03/21 06:19:27;;;;;;;13.20;9.95;;;;;;;5.67;87.49;102394.84;5051123;28;20047;-40
2021/03/21 06:22:02;;;;;;;;;;;;;;;5.72;86.97;102395.19;5050981;28;20123;-40
2021/03/21 06:24:38;;;;;;;15.05;8.95;;;;;;;5.69;86.93;102400.88;5051072;28;19956;-41
2021/03/21 06:27:20;;;;;;;17.88;8.48;;;;;;;5.69;86.57;102406.25;5051467;28;20025;-40
2021/03/21 06:30:21;;;;;;;12.15;7.97;;;;;;;5.71;85.81;102404.25;5055380;28;20037;-41
2021/03/21 06:33:07;;;;;;;14.00;7.10;;;;;;;5.71;85.43;102406.94;5055166;28;20032;-40
2021/03/21 06:36:29;;;;;;;11.40;6.70;;;;;;;5.74;84.96;102414.66;5054991;28;20033;-40
2021/03/21 06:39:22;;;;;;;10.60;6.40;;;;;;;5.75;84.90;102405.59;5035365;28;20066;-40
2021/03/21 06:42:07;;;;;;;11.98;6.38;;;;;;;5.75;84.44;102416.34;5034864;28;20048;-40
2021/03/21 06:44:47;;;;;;;10.40;6.18;;;;;;;5.77;83.80;102413.50;5035428;28;20037;-40
2021/03/21 06:47:37;;;;;;;9.90;5.10;;;;;;;5.79;83.56;102408.81;5035202;28;20048;-40
2021/03/21 06:50:08;;;;;;;10.02;4.63;;;;;;;5.79;82.63;102416.88;5035286;28;20355;-41
2021/03/21 06:52:52;;;;;;;6.28;4.15;;;;;;;5.82;82.85;102425.44;5034732;28;20037;-41
2021/03/21 06:55:31;;;;;;;9.30;4.40;;;;;;;5.83;82.82;102426.28;5055053;28;20048;-41
2021/03/21 06:58:14;;;;;;;11.02;3.90;;;;;;;5.87;82.78;102430.34;5095438;28;20388;-41
2021/03/21 07:00:42;;;;;;;9.23;3.78;;;;;;;5.87;82.13;102431.16;5094884;28;20073;-40
2021/03/21 07:03:32;;;;;;;9.77;3.30;;;;;;;5.86;80.04;102434.03;5094474;28;20032;-41
2021/03/21 07:06:13;;;;;;;7.30;2.83;;;;;;;5.88;79.66;102432.84;5095083;28;20028;-41
2021/03/21 07:09:08;;;;;;;8.88;3.05;;;;;;;5.91;80.86;102426.31;5094536;28;20485;-41
2021/03/21 07:11:55;;;;;;;5.25;2.20;;;;;;;5.94;79.57;102426.84;5097493;28;20028;-41
2021/03/21 07:14:39;;;;;;;9.18;2.83;;;;;;;5.97;78.40;102432.91;5096727;28;20350;-41
2021/03/21 07:17:29;;;;;;;6.95;1.88;;;;;;;5.96;78.47;102437.44;5097164;28;20403;-41
2021/03/21 07:20:34;;;;;;;8.93;2.25;;;;;;;5.99;77.89;102441.63;5096889;28;20457;-41
2021/03/21 07:23:22;;;;;;;8.25;2.40;;;;;;;6.02;78.36;102430.59;5096556;28;20464;-41
2021/03/21 07:26:23;;;;;;;9.45;1.65;;;;;;;6.07;78.18;102444.38;5097283;28;20032;-41
2021/03/21 07:29:06;;;;;;;8.80;1.95;;;;;;;6.10;78.57;102441.34;5054502;28;20136;-41
2021/03/21 07:31:58;;;;;;;5.40;1.60;;;;;;;6.15;78.45;102441.72;5053658;28;20041;-41
2021/03/21 07:34:36;;;;;;;9.65;1.85;;;;;;;6.18;77.17;102441.38;5053734;28;20037;-41
2021/03/21 07:37:28;;;;;;;7.45;1.75;;;;;;;6.22;76.97;102445.44;5054035;28;20050;-41
2021/03/21 07:40:15;;;;;;;8.35;1.83;;;;;;;6.26;77.08;102445.94;5053070;28;20037;-41
2021/03/21 07:42:56;;;;;;;8.57;1.50;;;;;;;6.30;77.02;102436.56;5053605;28;20025;-41
2021/03/21 07:45:26;;;;;;;9.05;1.65;;;;;;;6.33;75.36;102431.69;5053979;28;20500;-41
2021/03/21 07:48:09;;;;;;;9.18;1.92;;;;;;;6.35;75.04;102427.00;5053391;28;20477;-41
2021/03/21 07:50:35;;;;;;;7.43;1.52;;;;;;;6.41;75.29;102423.66;5036606;28;20036;-41
2021/03/21 07:53:03;;;;;;;5.50;1.75;;;;;;;6.46;74.90;102431.22;5053383;28;20035;-41
2021/03/21 07:55:34;;;;;;;8.95;2.05;;;;;;;6.52;75.84;102429.72;5053535;28;20493;-41
2021/03/21 07:58:23;;;;;;;6.13;1.63;;;;;;;6.61;76.21;102439.47;5053641;28;20033;-41
2021/03/21 08:00:49;;;;;;;6.88;1.85;;;;;;;6.66;75.70;102434.44;5053079;28;20029;-42
2021/03/21 08:03:23;;;;;;;11.10;1.95;;;;;;;6.69;74.90;102434.13;5055094;28;20112;-41
2021/03/21 08:05:53;;;;;;;11.50;2.63;;;;;;;6.75;76.20;102440.66;5096267;28;20384;-41
2021/03/21 08:08:26;;;;;;;8.07;2.03;;;;;;;6.74;74.48;102439.00;5095627;28;20036;-41
2021/03/21 08:10:56;;;;;;;9.30;2.00;;;;;;;6.75;74.73;102437.97;5095903;28;20082;-41
2021/03/21 08:13:25;;;;;;;9.63;1.70;;;;;;;6.77;75.65;102438.63;5096064;28;20024;-41
2021/03/21 08:15:51;;;;;;;11.00;1.90;;;;;;;6.71;75.29;102430.22;5095534;28;20116;-40
2021/03/21 08:18:19;;;;;;;9.43;2.10;;;;;;;6.73;75.53;102438.13;5095388;28;20103;-41
2021/03/21 08:20:49;;;;;;;8.90;1.73;;;;;;;6.71;75.73;102440.16;5096089;28;20052;-41
2021/03/21 08:23:21;;;;;;;11.02;2.47;;;;;;;6.71;76.01;102442.84;5095027;28;20036;-42
2021/03/21 08:25:48;;;;;;;9.68;2.75;;;;;;;6.67;74.21;102450.38;5095712;28;20024;-40
2021/03/21 08:28:16;;;;;;;8.68;1.98;;;;;;;6.69;73.21;102442.19;5095613;28;20121;-41
2021/03/21 08:30:55;;;;;;;8.27;1.85;;;;;;;6.74;73.86;102445.22;5095144;28;20107;-40
2021/03/21 08:33:34;;;;;;;12.65;2.47;;;;;;;6.74;73.78;102445.22;5095138;28;20028;-41
2021/03/21 08:36:19;;;;;;;10.77;2.08;;;;;;;6.80;73.50;102441.84;5094879;28;20039;-41
2021/03/21 08:38:56;;;;;;;8.32;2.22;;;;;;;6.80;71.87;102432.94;5095841;28;20036;-40
2021/03/21 08:41:24;;;;;;;9.57;1.90;;;;;;;6.81;71.74;102442.69;5094938;28;20042;-41
2021/03/21 08:43:58;;;;;;;9.75;2.55;;;;;;;6.87;72.62;102447.38;5095488;28;20036;-41
2021/03/21 08:46:23;;;;;;;10.52;2.22;;;;;;;6.88;70.49;102447.22;5095403;28;20063;-41
2021/03/21 08:49:04;;;;;;;7.75;1.83;;;;;;;6.87;70.74;102455.44;5095075;28;20070;-41
2021/03/21 08:51:37;;;;;;;19.85;3.30;;;;;;;6.87;71.73;102444.69;5094724;28;20035;-41
2021/03/21 08:54:13;;;;;;;6.60;1.88;;;;;;;6.92;72.00;102445.88;5095577;28;20384;-41
2021/03/21 08:57:02;;;;;;;14.07;2.47;;;;;;;7.00;71.66;102444.19;5095167;28;20036;-41
2021/03/21 08:59:40;;;;;;;9.43;2.00;;;;;;;7.09;71.11;102456.66;5094903;28;20047;-41
2021/03/21 09:02:16;;;;;;;7.43;2.08;;;;;;;7.15;68.70;102453.28;5095603;28;20334;-41
2021/03/21 09:04:59;;;;;;;8.23;1.83;;;;;;;7.29;69.54;102460.66;5094313;28;20086;-41
2021/03/21 09:07:32;;;;;;;6.65;1.70;;;;;;;7.32;68.13;102463.03;5095259;28;20111;-41
2021/03/21 09:10:29;;;;;;;13.25;3.03;;;;;;;7.32;68.46;102465.72;5092833;28;20399;-41
2021/03/21 09:13:03;;;;;;;8.52;2.10;;;;;;;7.36;69.28;102472.41;5094934;28;20040;-41
2021/03/21 09:15:36;;;;;;;12.20;2.22;;;;;;;7.30;67.30;102473.09;5094923;28;20357;-42
2021/03/21 09:18:04;;;;;;;8.30;1.67;;;;;;;7.32;68.33;102478.31;5094346;28;20024;-41
2021/03/21 09:20:33;;;;;;;14.05;2.65;;;;;;;7.29;68.10;102482.19;5094234;28;20044;-41
2021/03/21 09:22:58;;;;;;;12.57;2.58;;;;;;;7.27;67.28;102483.34;5094102;28;20043;-41
2021/03/21 09:25:32;;;;;;;11.00;2.33;;;;;;;7.26;67.76;102489.75;5094493;28;20380;-41
2021/03/21 09:27:59;;;;;;;12.85;2.60;;;;;;;7.26;68.25;102497.81;5094470;28;20129;-41
2021/03/21 09:30:38;;;;;;;13.27;2.78;;;;;;;7.14;67.67;102491.94;5094442;28;20456;-41
2021/03/21 09:33:07;;;;;;;12.07;2.58;;;;;;;7.17;68.34;102499.66;5094246;28;20069;-41
2021/03/21 09:35:47;;;;;;;14.55;2.70;;;;;;;7.16;67.85;102506.06;5094276;28;20024;-41
2021/03/21 09:38:19;;;;;;;13.30;2.83;;;;;;;7.14;67.08;102500.03;5093987;28;20086;-41
2021/03/21 09:40:53;;;;;;;16.50;3.45;;;;;;;7.13;66.60;102498.34;5093896;28;20039;-41
2021/03/21 09:43:22;;;;;;;16.42;3.25;;;;;;;7.14;66.54;102505.41;5093611;28;20059;-41
2021/03/21 09:46:00;;;;;;;15.52;3.63;;;;;;;7.13;66.96;102515.31;5094090;28;20028;-40
2021/03/21 09:48:54;;;;;;;15.32;3.00;;;;;;;7.14;66.30;102506.25;5094248;28;20024;-41
2021/03/21 09:51:44;;;;;;;18.45;3.63;;;;;;;7.14;66.91;102505.41;5051019;28;20048;-41
2021/03/21 09:54:25;;;;;;;16.38;3.67;;;;;;;7.17;67.02;102499.66;5044719;28;20139;-41
2021/03/21 09:57:24;;;;;;;12.38;2.80;;;;;;;7.21;66.93;102503.72;5051820;28;20095;-41
2021/03/21 10:00:10;;;;;;;15.77;3.40;;;;;;;7.19;65.67;102492.28;5050894;28;20033;-41
2021/03/21 10:02:48;;;;;;;19.33;3.92;;;;;;;7.20;66.31;102489.41;5050926;28;20604;-41
2021/03/21 10:05:32;;;;;;;13.90;3.35;;;;;;;7.26;66.63;102509.41;5051229;28;20096;-41
2021/03/21 10:08:16;;;;;;;17.52;3.35;;;;;;;7.32;66.43;102515.97;5051326;28;20040;-41
2021/03/21 10:10:52;;;;;;;15.50;3.33;;;;;;;7.35;66.64;102521.88;5050832;28;20031;-42
2021/03/21 10:13:38;;;;;;;16.25;3.35;;;;;;;7.33;65.67;102523.06;5051028;28;20036;-40
2021/03/21 10:16:27;;;;;;;15.65;3.10;;;;;;;7.28;64.56;102515.50;5051192;28;20037;-40
2021/03/21 10:18:52;;;;;;;14.52;2.83;;;;;;;7.31;65.92;102525.06;5043118;28;20037;-41
2021/03/21 10:21:23;;;;;;;15.80;3.47;;;;;;;7.41;65.56;102536.50;5051370;28;20047;-41
2021/03/21 10:23:49;;;;;;;14.27;3.55;;;;;;;7.45;64.68;102535.16;5050866;28;20064;-41
2021/03/21 10:26:19;;;;;;;10.10;2.78;;;;;;;7.48;65.41;102532.97;5051371;28;20497;-41
2021/03/21 10:29:15;;;;;;;13.00;2.78;;;;;;;7.56;65.96;102529.41;5083757;28;20047;-41
2021/03/21 10:31:40;;;;;;;21.35;3.80;;;;;;;7.59;66.95;102542.56;5050802;28;20077;-41
2021/03/21 10:34:05;;;;;;;17.53;3.20;;;;;;;7.62;66.44;102539.53;5050794;28;20547;-41
2021/03/21 10:36:43;;;;;;;13.70;3.17;;;;;;;7.67;64.56;102539.03;5050993;28;20036;-41
2021/03/21 10:39:20;;;;;;;15.52;3.50;;;;;;;7.74;65.58;102534.63;5051203;28;20036;-41
2021/03/21 10:42:05;;;;;;;15.50;3.40;;;;;;;7.80;64.77;102533.09;5051094;28;20033;-41
2021/03/21 10:44:30;;;;;;;15.75;3.60;;;;;;;7.91;64.26;102530.91;5050717;28;20505;-41
2021/03/21 10:46:56;;;;;;;21.93;4.67;;;;;;;7.94;62.58;102527.00;5051461;28;20029;-41
2021/03/21 10:49:40;;;;;;;;;;;;;;;8.05;63.06;102525.78;5051515;28;20474;-41
2021/03/21 10:52:36;;;;;;;17.20;3.53;;;;;;;7.98;63.11;102531.88;5050832;28;19939;-40
2021/03/21 10:55:11;;;;;;;15.35;3.58;;;;;;;7.89;62.23;102540.97;5050596;28;20045;-41
2021/03/21 10:57:45;;;;;;;22.05;3.90;;;;;;;7.83;62.33;102535.44;5051002;28;20033;-41
2021/03/21 11:00:33;;;;;;;20.30;4.30;;;;;;;7.82;63.12;102540.00;5051111;28;20376;-41
2021/03/21 11:02:59;;;;;;;22.02;4.45;;;;;;;7.79;62.79;102526.03;5050487;28;20040;-41
2021/03/21 11:05:45;;;;;;;18.25;3.97;;;;;;;7.85;62.98;102536.94;5051339;28;20413;-41
2021/03/21 11:08:13;;;;;;;15.37;3.70;;;;;;;7.86;61.97;102527.88;5062968;28;20040;-41
2021/03/21 11:10:50;;;;;;;19.70;4.25;;;;;;;7.94;61.64;102530.53;5093512;28;20028;-40
2021/03/21 11:13:26;;;;;;;19.60;4.03;;;;;;;8.06;60.78;102524.78;5093413;28;20073;-41
2021/03/21 11:15:52;;;;;;;17.03;3.60;;;;;;;8.15;61.02;102519.19;5096953;28;20024;-40
2021/03/21 11:18:25;;;;;;;19.33;4.13;;;;;;;8.27;61.15;102516.94;5096508;28;20276;-40
2021/03/21 11:21:19;;;;;;;15.95;3.70;;;;;;;8.38;61.78;102511.19;5097000;28;20074;-41
2021/03/21 11:23:55;;;;;;;21.40;3.72;;;;;;;8.39;59.93;102523.66;5096255;28;20588;-41
2021/03/21 11:26:34;;;;;;;24.38;4.80;;;;;;;8.22;60.53;102522.03;5096760;28;20132;-41
2021/03/21 11:29:05;;;;;;;20.17;4.90;;;;;;;7.98;60.66;102525.66;5096734;28;20024;-40
2021/03/21 11:31:43;;;;;;;20.90;5.38;;;;;;;7.99;59.92;102521.94;5096149;28;20181;-41
2021/03/21 11:34:34;;;;;;;21.48;4.20;;;;;;;7.98;60.69;102518.41;5095236;28;20028;-41
2021/03/21 11:37:11;;;;;;;19.70;4.85;;;;;;;7.98;60.03;102518.41;5096303;28;20020;-41
2021/03/21 11:39:52;;;;;;;16.77;4.25;;;;;;;8.00;59.68;102529.00;5095941;28;20040;-41
2021/03/21 11:42:29;;;;;;;16.05;4.20;;;;;;;8.04;59.90;102529.50;5096287;28;20086;-41
2021/03/21 11:45:16;;;;;;;16.25;3.90;;;;;;;8.09;60.26;102517.19;5095916;28;20483;-41
2021/03/21 11:47:48;;;;;;;17.52;3.85;;;;;;;8.13;60.65;102528.47;5096042;28;20028;-41
2021/03/21 11:50:26;;;;;;;22.52;4.63;;;;;;;8.14;60.87;102524.75;5096352;28;20063;-41
2021/03/21 11:52:53;;;;;;;17.27;4.18;;;;;;;8.14;59.73;102532.81;5095981;28;20036;-41
2021/03/21 11:55:27;;;;;;;15.50;5.20;;;;;;;8.13;58.88;102526.59;5096443;28;20111;-41
2021/03/21 11:57:55;;;;;;;20.90;4.28;;;;;;;8.05;57.64;102523.09;5096176;28;20020;-41
2021/03/21 12:00:25;;;;;;;19.67;4.65;;;;;;;7.97;58.79;102524.81;5095819;28;20036;-41
2021/03/21 12:03:09;;;;;;;16.35;3.75;;;;;;;8.06;57.96;102527.50;5095996;28;20426;-41
2021/03/21 12:05:38;;;;;;;17.98;5.07;;;;;;;8.09;58.42;102527.13;5096091;28;20036;-41
2021/03/21 12:08:12;;;;;;;20.67;4.00;;;;;;;8.11;59.19;102525.94;5096464;28;20073;-41
2021/03/21 12:10:40;;;;;;;18.15;4.90;;;;;;;8.08;58.67;102541.63;5096157;28;20090;-41